Portada
METAR-TAF:

METAR-TAF

Aeroports :

Port Moresby, Papua Nova Guinea

latitud: 09-26S, longitud: 147-13E, altitud: 38 m

Observació

L'informe es va fer fa 43 minuts, a les 18:00 UTC
Vent 2 kt del Nord
Temperatura 24°C
Humitat 94%
Pressió 1008 hPa
Visibilitat 10 km o més
Cel cobert a una alçada de 2500 ft

METAR: AYPY 161800Z 35002KT 9999 OVC025 24/23 Q1008

Hora: 04:43 (18:43 UTC)

Pronòstic

L'informe es va fer fa 2 hores i 36 minuts, a les 16:07 UTC
Pronòstic vàlid del 16 a les 18 UTC al 17 a les 18 UTC
Vent kt del Nord
Visibilitat 10 km o més
Núvols disperses a una alçada de 4000 ft
Probabilitat 30%
l' 16 a les 19 UTC al 16 a les 21 UTC
Visibilitat: 0700 m
boira

TAF: AYPY 161607Z 1618/1718 00000KT 9999 SCT040 PROB30 1619/1621 0700 FG

Observacions i pronòstics meteorològics de més de 4000 aeroports (METAR i TAF).

Les estacions disponibles són els punts grocs i vermells al mapa.

Posi el ratolí al punt desitjat per veure el nom de l'estació.

Feu clic per veure les observacions i els pronòstics meteorològics.

Per canviar el mapa: feu clic els botons verds amb una creu de color negre per apropar; al botó verd amb un guió per allunyar la imatge; o en les fletxes verdes per a mapes adjacents.


METAR-TAF: